To NAV CANADA Home Page Login to a new session Search on AWWS site Feedback and Comments Disclaimer Vers la page française équivalente Tips FAQ What's new on the site To the Forecasts and Observations / NOTAM section To "File a Flight Plan" website Publications and other links Update of the User's profile FIC Telephone Numbers My Weather Data Folder Route Weather Data Regional Weather Data Local Weather Data To the Forecasts and Observations / NOTAM section
Request Generated 05/27/2016 at 17:59:48 UTC . Weather information available at that time is displayed.

METAR/TAF

ST. JOHN'S/ST. JOHN'S INTL/NL    

METAR CYYT 271700Z 01014KT 15SM BKN015 BKN200 05/01 A3027 RMK CU5CI1
SLP258=
METAR CYYT 271600Z 02015G20KT 15SM SCT015 05/01 A3027 RMK CU4 SLP257=
METAR CYYT 271500Z 04015G20KT 15SM SCT015 06/02 A3026 RMK CU4 SLP256=

TAF CYYT 271739Z 2718/2818 01012KT P6SM SCT015 TEMPO 2718/2724 BKN015
FM280000 04006KT P6SM SCT012 BKN180 TEMPO 2800/2809 BKN012 BKN180
BECMG 2804/2806 16008KT
FM280900 18008KT P6SM BKN030 BKN100
FM281100 16012KT P6SM -SHRA SCT008 OVC040
FM281300 16012KT 6SM -RA BR SCT008 OVC012
FM281600 17012KT 4SM -RA BR OVC008
RMK NXT FCST BY 280000Z=
Your time UTC time
Weather data provided by Environment Canada and NAV CANADA